Kingman, AZ

6:46 AM MST on May 24, 2015 (GMT -0700)
Southeast Kingman | | Change Station
CLOSE
Current Station
Personal Weather Station
Location: Kingman, AZ
Elevation: 3584 ft
Nearby Weather Stations

Elev 3584 ft 35.20 °N, 114.00 °W | Updated 5 minutes ago

Partly Cloudy
Partly Cloudy
56.2 °F
Feels Like 56.2 °F
N
0.0
Wind Variable Wind from South
Gusts 0.0 mph

Today
High -- | Low -- °F
--% Chance of Precip.
Yesterday
High -- | Low -- °F
Precip. -- in
5:26 AM 7:40 PM
Waxing Crescent, 39% visible
Pressure 29.79 in
Visibility -9999.0 miles
Clouds Clear
Dew Point 40 °F
Humidity 55%
Rainfall 0.00 in
Snow Depth Not available.
UV 0 out of 12
Pollen 5.40 out of 12
Air Quality Not available.
Flu Activity Local Activity
METAR KIGM 241251Z AUTO 16005KT CLR 12/03 A2994 RMK AO2 SLP087 T01220028 $

More Conditions Fewer Conditions

Pressure 29.79 in
Visibility -9999.0 miles
Clouds Clear
Dew Point 40 °F
Humidity 55%
Rainfall 0.00 in
Snow Depth Not available.
UV 0 out of 12
Pollen 5.40 out of 12
Air Quality Not available.
Flu Activity Local Activity
METAR KIGM 241251Z AUTO 16005KT CLR 12/03 A2994 RMK AO2 SLP087 T01220028 $

More Conditions Fewer Conditions

10-Day Weather Forecast

Almanac

Astronomy

May. 24, 2015 Rise Set
Actual Time
Civil Twilight
Nautical Twilight
Astronomical Twilight
Moon
Length of Visible Light
Length of Day
Tomorrow will be .
, % of the Moon is Illuminated

Today's Extremes

State Highs State Lows

Community

WunderPhotos

Upload Photos

1,823,738 photos uploaded!

WunderBlogs® & News

Nearby

Air Quality

  Air Quality AQ Index Pollutant
Not available.

Snow Depth

Station Depth Elevation

Earthquake Activity

City Distance Mag. Time & Date
Minimum magnitude displayed is 2.5.

Coastal Water Temperatures

Place Temperature

Stations

Nearby Weather Stations

Station Location Temp. Windchill Dew Point Humidity Wind Precip. Elev Updated Type